Time;durP1;ratioP1;P1;durP2;ratioP2;P2;SDS_P1;SDS_P2;PMS_P1;PMS_P2;Temp;Humidity;BMP_temperature;BMP_pressure;BME280_temperature;BME280_humidity;BME280_pressure;Samples;Min_cycle;Max_cycle;Signal;HPM_P1;HPM_P2
2021/01/08 00:01:58;;;;;;;14.55;8.18;;;1.10;42.30;;;;;;5048090;28;20048;-70
2021/01/08 00:04:26;;;;;;;14.38;7.50;;;1.10;42.10;;;;;;5046950;28;20052;-71
2021/01/08 00:06:56;;;;;;;17.80;10.02;;;1.10;43.10;;;;;;5046539;28;20179;-71
2021/01/08 00:09:23;;;;;;;17.60;9.65;;;1.20;42.60;;;;;;5045282;28;20566;-70
2021/01/08 00:11:56;;;;;;;12.68;7.47;;;1.20;41.70;;;;;;5048628;28;20052;-71
2021/01/08 00:14:23;;;;;;;14.45;8.52;;;1.20;41.10;;;;;;5047647;28;20495;-70
2021/01/08 00:16:50;;;;;;;14.38;7.57;;;1.20;41.00;;;;;;5046397;28;20045;-70
2021/01/08 00:19:16;;;;;;;14.82;8.30;;;1.30;41.00;;;;;;5044633;28;20452;-71
2021/01/08 00:21:44;;;;;;;13.85;7.65;;;1.30;40.40;;;;;;5048461;28;20044;-74
2021/01/08 00:24:12;;;;;;;15.60;8.48;;;1.30;40.20;;;;;;5048059;28;20064;-70
2021/01/08 00:26:41;;;;;;;14.13;7.97;;;1.20;41.10;;;;;;5044877;28;20061;-71
2021/01/08 00:29:10;;;;;;;16.75;8.63;;;1.20;41.50;;;;;;5046867;28;20643;-71
2021/01/08 00:31:38;;;;;;;13.95;8.85;;;1.20;41.70;;;;;;5047455;28;20059;-72
2021/01/08 00:34:07;;;;;;;15.07;8.20;;;1.20;43.10;;;;;;5047762;28;20504;-71
2021/01/08 00:36:35;;;;;;;17.45;8.70;;;1.20;42.20;;;;;;5046347;28;20063;-69
2021/01/08 00:39:04;;;;;;;16.65;9.48;;;1.20;41.30;;;;;;5048519;28;20063;-74
2021/01/08 00:41:33;;;;;;;16.27;9.55;;;1.20;43.10;;;;;;5045880;28;20053;-71
2021/01/08 00:44:00;;;;;;;20.60;10.05;;;1.20;42.10;;;;;;5048543;28;20407;-71
2021/01/08 00:46:34;;;;;;;15.75;9.00;;;1.20;42.60;;;;;;5046296;28;20513;-75
2021/01/08 00:49:01;;;;;;;15.93;9.33;;;1.20;42.40;;;;;;5047537;28;20049;-71
2021/01/08 00:51:28;;;;;;;17.08;9.05;;;1.20;41.00;;;;;;5045508;28;20661;-70
2021/01/08 00:53:55;;;;;;;17.15;9.45;;;1.20;41.80;;;;;;5048257;28;20049;-72
2021/01/08 00:56:23;;;;;;;15.52;8.73;;;1.20;41.20;;;;;;5045697;28;20053;-69
2021/01/08 00:58:50;;;;;;;14.18;7.85;;;1.20;41.20;;;;;;5048393;28;20518;-70
2021/01/08 01:01:18;;;;;;;14.13;8.00;;;1.20;39.50;;;;;;5044642;28;20045;-69
2021/01/08 01:03:45;;;;;;;16.52;9.13;;;1.10;38.90;;;;;;5048177;28;20049;-72
2021/01/08 01:06:12;;;;;;;16.45;9.10;;;1.10;38.60;;;;;;5043272;28;20098;-73
2021/01/08 01:08:39;;;;;;;15.63;7.97;;;1.10;40.30;;;;;;5047946;28;20458;-71
2021/01/08 01:11:06;;;;;;;14.60;7.38;;;0.90;38.30;;;;;;5043591;28;20045;-71
2021/01/08 01:13:34;;;;;;;14.65;7.35;;;0.90;36.20;;;;;;5048139;28;20045;-70
2021/01/08 01:16:00;;;;;;;13.50;6.93;;;0.80;36.50;;;;;;5045080;28;20046;-70
2021/01/08 01:18:27;;;;;;;14.73;6.47;;;0.80;35.20;;;;;;5047749;28;20045;-70
2021/01/08 01:20:54;;;;;;;12.27;6.90;;;0.80;34.60;;;;;;5044244;28;20045;-71
2021/01/08 01:23:21;;;;;;;15.40;7.43;;;0.80;34.50;;;;;;5048623;28;20047;-71
2021/01/08 01:25:48;;;;;;;13.88;7.57;;;0.80;34.50;;;;;;5050173;28;20059;-70
2021/01/08 01:28:15;;;;;;;12.70;6.78;;;0.70;33.20;;;;;;5047215;28;20397;-71
2021/01/08 01:30:42;;;;;;;13.13;7.70;;;0.60;34.40;;;;;;5044656;28;20059;-70
2021/01/08 01:33:09;;;;;;;13.43;7.65;;;0.60;34.40;;;;;;5050335;28;20049;-71
2021/01/08 01:35:37;;;;;;;11.18;6.32;;;0.50;35.40;;;;;;5046597;28;20056;-70
2021/01/08 01:38:03;;;;;;;15.57;7.78;;;0.50;36.20;;;;;;5048453;28;20052;-70
2021/01/08 01:40:30;;;;;;;15.43;7.65;;;0.40;36.70;;;;;;5045227;28;20428;-70
2021/01/08 01:42:57;;;;;;;14.23;7.88;;;0.40;37.50;;;;;;5049444;28;20055;-70
2021/01/08 01:45:24;;;;;;;14.90;8.38;;;0.40;38.00;;;;;;5043031;28;20041;-74
2021/01/08 01:47:52;;;;;;;14.55;8.10;;;0.40;38.40;;;;;;5045424;28;20045;-70
2021/01/08 01:50:19;;;;;;;14.35;7.80;;;0.30;38.60;;;;;;5045388;28;20045;-70
2021/01/08 01:52:47;;;;;;;14.80;7.72;;;0.30;38.90;;;;;;5050671;28;20045;-70
2021/01/08 01:55:15;;;;;;;14.15;8.75;;;0.40;39.80;;;;;;5049151;28;20045;-70
2021/01/08 01:57:41;;;;;;;14.10;8.32;;;0.40;39.10;;;;;;5043049;28;20049;-70
2021/01/08 02:00:09;;;;;;;13.90;7.82;;;0.40;39.30;;;;;;5045708;28;20048;-70
2021/01/08 02:02:41;;;;;;;14.82;8.05;;;0.40;39.20;;;;;;5048721;28;20418;-70
2021/01/08 02:05:12;;;;;;;15.73;8.95;;;0.50;39.40;;;;;;5047833;28;20037;-70
2021/01/08 02:07:46;;;;;;;11.75;7.57;;;0.50;38.90;;;;;;5047676;28;20052;-72
2021/01/08 02:10:14;;;;;;;17.00;8.45;;;0.60;37.80;;;;;;5046678;28;20513;-69
2021/01/08 02:12:43;;;;;;;13.77;7.18;;;0.70;37.40;;;;;;5047174;28;20053;-70
2021/01/08 02:15:11;;;;;;;14.48;8.20;;;0.70;37.10;;;;;;5049819;28;20055;-70
2021/01/08 02:17:40;;;;;;;13.32;7.78;;;0.70;37.50;;;;;;5046404;28;20052;-70
2021/01/08 02:20:10;;;;;;;13.25;7.30;;;0.70;35.80;;;;;;5046891;28;20057;-70
2021/01/08 02:22:46;;;;;;;12.25;7.53;;;0.80;36.50;;;;;;5049111;28;20045;-70
2021/01/08 02:25:16;;;;;;;13.60;6.95;;;0.80;35.70;;;;;;5047050;28;20041;-71
2021/01/08 02:28:01;;;;;;;14.93;7.80;;;0.80;35.80;;;;;;5045822;28;20063;-71
2021/01/08 02:30:28;;;;;;;12.40;6.85;;;0.90;36.30;;;;;;5045575;28;20442;-69
2021/01/08 02:32:55;;;;;;;14.73;6.35;;;0.90;35.80;;;;;;5044928;28;20045;-71
2021/01/08 02:35:23;;;;;;;13.93;7.05;;;0.90;34.90;;;;;;5045632;28;20049;-70
2021/01/08 02:37:49;;;;;;;11.35;6.38;;;0.90;35.00;;;;;;5046632;28;20051;-72
2021/01/08 02:40:18;;;;;;;13.57;7.05;;;1.00;35.60;;;;;;5044399;28;20041;-70
2021/01/08 02:42:47;;;;;;;12.23;6.63;;;0.90;36.00;;;;;;5049600;28;20048;-71
2021/01/08 02:45:15;;;;;;;14.00;7.40;;;0.90;36.40;;;;;;5047531;28;20052;-71
2021/01/08 02:47:42;;;;;;;11.85;6.65;;;1.00;36.20;;;;;;5041599;28;20045;-71
2021/01/08 02:50:09;;;;;;;12.70;6.50;;;1.00;36.60;;;;;;5044792;28;20665;-71
2021/01/08 02:52:40;;;;;;;15.48;8.02;;;1.00;37.40;;;;;;5047566;28;20142;-72
2021/01/08 02:55:10;;;;;;;12.90;7.20;;;1.00;36.30;;;;;;5045047;28;20136;-72
2021/01/08 02:57:39;;;;;;;13.27;6.95;;;1.00;36.70;;;;;;5043752;28;20056;-71
2021/01/08 03:00:08;;;;;;;13.52;7.40;;;1.00;37.30;;;;;;5042792;28;20045;-71
2021/01/08 03:02:35;;;;;;;13.05;6.97;;;1.00;38.10;;;;;;5047488;28;20056;-72
2021/01/08 03:05:02;;;;;;;10.93;6.47;;;0.90;36.80;;;;;;5045358;28;20420;-72
2021/01/08 03:07:28;;;;;;;14.45;7.25;;;1.00;37.00;;;;;;5044127;28;20510;-71
2021/01/08 03:09:55;;;;;;;11.45;6.80;;;1.00;37.00;;;;;;5043259;28;20049;-71
2021/01/08 03:12:28;;;;;;;10.57;6.03;;;1.00;36.90;;;;;;5048820;28;20122;-71
2021/01/08 03:14:57;;;;;;;13.88;6.90;;;0.90;36.00;;;;;;5046617;28;20064;-70
2021/01/08 03:17:24;;;;;;;13.57;7.15;;;0.90;36.70;;;;;;5043109;28;20131;-70
2021/01/08 03:19:51;;;;;;;12.95;6.80;;;0.90;37.10;;;;;;5043800;28;20045;-72
2021/01/08 03:22:18;;;;;;;10.73;6.30;;;0.90;36.60;;;;;;5047732;28;20056;-71
2021/01/08 03:24:45;;;;;;;12.15;6.65;;;0.80;36.80;;;;;;5047036;28;20415;-72
2021/01/08 03:27:12;;;;;;;14.45;6.50;;;0.80;38.10;;;;;;5042586;28;20044;-71
2021/01/08 03:29:39;;;;;;;13.93;6.80;;;0.70;39.30;;;;;;5042931;28;20517;-69
2021/01/08 03:32:07;;;;;;;13.23;7.95;;;0.80;39.10;;;;;;5046048;28;20845;-70
2021/01/08 03:34:34;;;;;;;12.88;6.72;;;0.70;39.00;;;;;;5045002;28;20052;-69
2021/01/08 03:37:00;;;;;;;11.50;6.28;;;0.70;40.00;;;;;;5043656;28;20057;-71
2021/01/08 03:39:27;;;;;;;14.23;7.43;;;0.70;39.90;;;;;;5042740;28;20048;-73
2021/01/08 03:41:54;;;;;;;14.63;6.32;;;0.80;40.00;;;;;;5046158;28;20514;-70
2021/01/08 03:44:21;;;;;;;13.07;6.68;;;0.80;38.80;;;;;;5045823;28;20120;-71
2021/01/08 03:46:48;;;;;;;11.32;5.90;;;0.90;36.90;;;;;;5042878;28;20049;-71
2021/01/08 03:49:15;;;;;;;10.30;6.20;;;0.80;37.50;;;;;;5044176;28;20045;-70
2021/01/08 03:51:42;;;;;;;10.43;6.03;;;0.80;37.70;;;;;;5045427;28;20051;-71
2021/01/08 03:54:09;;;;;;;12.70;6.65;;;0.80;37.40;;;;;;5047462;28;20522;-71
2021/01/08 03:56:36;;;;;;;12.60;6.40;;;0.80;37.30;;;;;;5042286;28;20048;-70
2021/01/08 03:59:03;;;;;;;9.23;6.00;;;0.80;36.90;;;;;;5046446;28;20052;-71
2021/01/08 04:01:30;;;;;;;10.63;5.90;;;0.70;37.50;;;;;;5042851;28;20049;-72
2021/01/08 04:03:57;;;;;;;10.82;5.80;;;0.70;37.80;;;;;;5045297;28;20055;-71
2021/01/08 04:06:24;;;;;;;12.10;6.88;;;0.60;39.60;;;;;;5044219;28;20574;-70
2021/01/08 04:08:51;;;;;;;11.05;6.47;;;0.60;39.70;;;;;;5046427;28;20045;-70
2021/01/08 04:11:18;;;;;;;13.30;6.45;;;0.60;40.00;;;;;;5040369;28;20049;-69
2021/01/08 04:13:45;;;;;;;12.68;6.60;;;0.60;40.10;;;;;;5048658;28;20076;-71
2021/01/08 04:16:11;;;;;;;12.60;6.13;;;0.60;40.70;;;;;;5041464;28;20048;-70
2021/01/08 04:18:38;;;;;;;13.15;7.93;;;0.60;40.80;;;;;;5045443;28;20752;-70
2021/01/08 04:21:05;;;;;;;12.43;6.35;;;0.60;39.80;;;;;;5039088;28;20117;-71
2021/01/08 04:23:33;;;;;;;14.25;6.53;;;0.60;39.70;;;;;;5046771;28;20067;-71
2021/01/08 04:26:00;;;;;;;12.25;5.85;;;0.60;39.70;;;;;;5041710;28;20083;-69
2021/01/08 04:28:26;;;;;;;11.35;6.78;;;0.60;39.80;;;;;;5045789;28;20056;-69
2021/01/08 04:30:54;;;;;;;10.40;6.20;;;0.60;40.30;;;;;;5042011;28;20640;-70
2021/01/08 04:33:21;;;;;;;11.90;6.15;;;0.60;40.10;;;;;;5043323;28;20057;-70
2021/01/08 04:35:48;;;;;;;15.57;6.38;;;0.50;40.00;;;;;;5043586;28;20053;-70
2021/01/08 04:38:15;;;;;;;13.38;6.80;;;0.50;39.90;;;;;;5044306;28;20049;-71
2021/01/08 04:40:42;;;;;;;12.98;6.85;;;0.60;39.00;;;;;;5040559;28;20059;-69
2021/01/08 04:43:09;;;;;;;13.23;6.22;;;0.60;39.00;;;;;;5045264;28;20048;-70
2021/01/08 04:45:36;;;;;;;12.00;6.13;;;0.70;39.20;;;;;;5045189;28;20044;-71
2021/01/08 04:48:04;;;;;;;12.73;5.90;;;0.70;39.20;;;;;;5043240;28;20053;-70
2021/01/08 04:50:32;;;;;;;8.77;5.03;;;0.70;39.10;;;;;;5043747;28;20570;-75
2021/01/08 04:53:00;;;;;;;11.30;6.03;;;0.70;39.20;;;;;;5044556;28;20055;-71
2021/01/08 04:55:28;;;;;;;11.93;6.57;;;0.70;38.70;;;;;;5043059;28;20486;-72
2021/01/08 04:57:57;;;;;;;8.77;5.45;;;0.70;38.20;;;;;;5046627;28;20075;-70
2021/01/08 05:00:24;;;;;;;10.30;5.63;;;0.80;37.70;;;;;;5046748;28;20052;-70
2021/01/08 05:02:51;;;;;;;11.02;5.88;;;0.80;37.60;;;;;;5047339;28;20519;-70
2021/01/08 05:05:21;;;;;;;12.38;5.60;;;0.80;37.30;;;;;;5049392;28;20049;-70
2021/01/08 05:07:48;;;;;;;12.13;6.40;;;0.80;37.90;;;;;;5044352;28;20514;-69
2021/01/08 05:10:15;;;;;;;12.88;6.53;;;0.90;38.70;;;;;;5046325;28;20051;-70
2021/01/08 05:12:43;;;;;;;10.48;6.15;;;0.90;38.50;;;;;;5048811;28;20060;-71
2021/01/08 05:15:13;;;;;;;10.18;5.68;;;0.90;39.90;;;;;;5048227;28;20051;-71
2021/01/08 05:17:41;;;;;;;10.43;5.60;;;0.80;41.60;;;;;;5046589;28;20060;-71
2021/01/08 05:20:09;;;;;;;11.27;6.57;;;0.80;42.80;;;;;;5045893;28;20057;-70
2021/01/08 05:22:37;;;;;;;10.68;5.68;;;0.80;43.30;;;;;;5047258;28;20507;-70
2021/01/08 05:25:08;;;;;;;11.77;5.82;;;0.80;44.70;;;;;;5046750;28;20041;-69
2021/01/08 05:27:35;;;;;;;10.75;5.97;;;0.70;44.90;;;;;;5046662;28;20140;-70
2021/01/08 05:30:17;;;;;;;10.77;6.60;;;0.70;46.40;;;;;;5044546;28;20131;-71
2021/01/08 05:32:44;;;;;;;12.85;5.25;;;0.70;46.60;;;;;;5044873;28;20045;-70
2021/01/08 05:35:17;;;;;;;10.30;6.85;;;0.70;45.30;;;;;;5048139;28;20166;-70
2021/01/08 05:37:45;;;;;;;13.07;6.72;;;0.70;45.00;;;;;;5043022;28;20049;-69
2021/01/08 05:40:14;;;;;;;12.35;6.85;;;0.70;45.70;;;;;;5044309;28;20091;-70
2021/01/08 05:42:52;;;;;;;12.43;6.47;;;0.80;45.60;;;;;;5045914;28;20522;-70
2021/01/08 05:45:20;;;;;;;12.52;6.40;;;0.70;45.80;;;;;;5045509;28;20049;-72
2021/01/08 05:47:49;;;;;;;11.27;6.22;;;0.70;44.50;;;;;;5046399;28;20052;-71
2021/01/08 05:50:18;;;;;;;10.18;6.00;;;0.70;45.60;;;;;;5045100;28;20057;-71
2021/01/08 05:52:49;;;;;;;12.40;5.78;;;0.60;45.40;;;;;;5045374;28;20063;-71
2021/01/08 05:55:16;;;;;;;9.57;5.95;;;0.70;45.10;;;;;;5047895;28;20052;-70
2021/01/08 05:57:50;;;;;;;10.63;6.20;;;0.70;45.60;;;;;;5041571;28;20053;-70
2021/01/08 06:00:18;;;;;;;10.05;5.70;;;0.70;46.80;;;;;;5041031;28;20057;-70
2021/01/08 06:02:48;;;;;;;10.63;6.28;;;0.70;46.30;;;;;;5047356;28;20131;-70
2021/01/08 06:05:16;;;;;;;10.05;6.45;;;0.70;46.80;;;;;;5046351;28;20048;-71
2021/01/08 06:07:48;;;;;;;11.65;6.45;;;0.70;46.20;;;;;;5044118;28;20051;-71
2021/01/08 06:10:19;;;;;;;12.30;6.43;;;0.70;46.20;;;;;;5045611;28;20068;-70
2021/01/08 06:12:47;;;;;;;10.75;6.22;;;0.70;46.80;;;;;;5046841;28;20048;-70
2021/01/08 06:15:16;;;;;;;10.35;6.43;;;0.60;47.20;;;;;;5043916;28;20042;-70
2021/01/08 06:17:47;;;;;;;12.05;6.25;;;0.60;47.20;;;;;;5045155;28;20045;-70
2021/01/08 06:20:15;;;;;;;11.70;6.15;;;0.70;46.90;;;;;;5046001;28;20122;-72
2021/01/08 06:22:43;;;;;;;13.10;6.28;;;0.70;47.00;;;;;;5047695;28;20056;-70
2021/01/08 06:25:11;;;;;;;12.40;6.38;;;0.70;46.70;;;;;;5043055;28;20041;-73
2021/01/08 06:27:42;;;;;;;9.18;5.72;;;0.70;47.30;;;;;;5042588;28;20077;-71
2021/01/08 06:30:20;;;;;;;11.95;6.30;;;0.70;47.10;;;;;;5043532;28;20049;-70
2021/01/08 06:32:49;;;;;;;9.88;6.00;;;0.70;46.90;;;;;;5046484;28;20058;-70
2021/01/08 06:35:18;;;;;;;10.60;5.32;;;0.80;46.50;;;;;;5048356;28;20094;-70
2021/01/08 06:37:45;;;;;;;9.85;5.40;;;0.80;45.90;;;;;;5040773;28;20538;-70
2021/01/08 06:40:13;;;;;;;10.70;6.13;;;0.90;45.70;;;;;;5043964;28;20055;-71
2021/01/08 06:42:45;;;;;;;10.48;6.03;;;0.90;45.30;;;;;;5044147;28;20426;-70
2021/01/08 06:45:16;;;;;;;9.02;5.50;;;0.80;44.20;;;;;;5045013;28;20045;-70
2021/01/08 06:47:45;;;;;;;12.35;5.55;;;0.90;44.70;;;;;;5042281;28;20049;-70
2021/01/08 06:50:19;;;;;;;8.73;5.55;;;0.90;44.60;;;;;;5041925;28;20052;-70
2021/01/08 06:52:48;;;;;;;9.77;5.55;;;1.00;44.00;;;;;;5045153;28;20053;-71
2021/01/08 06:55:17;;;;;;;9.57;5.18;;;0.90;43.40;;;;;;5045038;28;20048;-71
2021/01/08 06:57:54;;;;;;;10.05;5.18;;;0.90;42.90;;;;;;5043624;28;20076;-70
2021/01/08 07:00:26;;;;;;;7.78;5.22;;;0.90;43.00;;;;;;5040787;28;20074;-71
2021/01/08 07:02:57;;;;;;;10.52;5.28;;;1.00;43.10;;;;;;5046812;28;20582;-70
2021/01/08 07:05:25;;;;;;;10.80;5.57;;;1.00;42.90;;;;;;5045193;28;21378;-71
2021/01/08 07:07:54;;;;;;;8.52;4.53;;;1.00;43.00;;;;;;5044199;28;21261;-70
2021/01/08 07:10:21;;;;;;;8.35;4.78;;;1.10;43.50;;;;;;5043920;28;20427;-70
2021/01/08 07:12:53;;;;;;;8.13;4.97;;;1.10;43.00;;;;;;5044483;28;20129;-72
2021/01/08 07:15:21;;;;;;;11.75;5.43;;;1.00;43.30;;;;;;5046950;28;20048;-70
2021/01/08 07:17:52;;;;;;;7.88;5.13;;;1.00;44.30;;;;;;5044380;28;20045;-72
2021/01/08 07:20:21;;;;;;;9.10;5.53;;;1.10;44.40;;;;;;5042119;28;20139;-71
2021/01/08 07:22:54;;;;;;;10.05;5.40;;;1.10;43.10;;;;;;5045585;28;20044;-70
2021/01/08 07:25:24;;;;;;;9.25;5.43;;;1.10;43.10;;;;;;5045506;28;20053;-70
2021/01/08 07:27:52;;;;;;;10.10;5.40;;;1.00;44.30;;;;;;5041946;28;20499;-70
2021/01/08 07:30:21;;;;;;;8.23;5.55;;;1.00;45.00;;;;;;5043220;28;20052;-69
2021/01/08 07:32:50;;;;;;;10.63;5.88;;;1.00;43.40;;;;;;5046530;28;20055;-71
2021/01/08 07:35:22;;;;;;;8.93;4.90;;;1.00;44.80;;;;;;5040483;28;20072;-72
2021/01/08 07:37:58;;;;;;;8.48;4.68;;;1.00;45.00;;;;;;5043538;28;20045;-71
2021/01/08 07:40:25;;;;;;;8.23;4.75;;;1.00;43.50;;;;;;5043223;28;20041;-71
2021/01/08 07:42:56;;;;;;;10.07;5.38;;;1.00;43.40;;;;;;5044021;28;20053;-70
2021/01/08 07:45:23;;;;;;;8.00;4.82;;;1.10;44.00;;;;;;5045977;28;20391;-71
2021/01/08 07:47:50;;;;;;;7.85;4.45;;;1.10;43.10;;;;;;5045352;28;20045;-71
2021/01/08 07:50:18;;;;;;;7.22;4.30;;;1.20;43.20;;;;;;5043449;28;20068;-72
2021/01/08 07:52:45;;;;;;;8.60;4.80;;;1.10;43.00;;;;;;5045839;28;20045;-72
2021/01/08 07:55:33;;;;;;;7.72;4.93;;;1.10;43.00;;;;;;5047226;28;20502;-73
2021/01/08 07:58:04;;;;;;;8.20;5.10;;;1.20;43.20;;;;;;5044255;28;20045;-71
2021/01/08 08:00:33;;;;;;;8.55;4.45;;;1.20;42.70;;;;;;5045337;28;20088;-71
2021/01/08 08:03:01;;;;;;;9.07;4.72;;;1.20;42.10;;;;;;5045052;28;20128;-77
2021/01/08 08:05:29;;;;;;;10.48;5.15;;;1.30;43.30;;;;;;5044702;28;20473;-71
2021/01/08 08:07:57;;;;;;;10.52;5.20;;;1.30;41.70;;;;;;5045328;28;20091;-75
2021/01/08 08:10:26;;;;;;;8.07;4.82;;;1.30;42.20;;;;;;5044205;28;20053;-71
2021/01/08 08:12:54;;;;;;;7.97;4.97;;;1.30;40.90;;;;;;5046804;28;20105;-71
2021/01/08 08:15:21;;;;;;;8.82;4.55;;;1.30;41.60;;;;;;5046747;28;20051;-71
2021/01/08 08:17:48;;;;;;;7.38;4.28;;;1.30;41.30;;;;;;5043718;28;20045;-74
2021/01/08 08:20:21;;;;;;;7.07;4.35;;;1.40;40.90;;;;;;5044177;28;20041;-73
2021/01/08 08:22:48;;;;;;;8.02;4.50;;;1.30;40.60;;;;;;5046179;28;20056;-71
2021/01/08 08:25:23;;;;;;;6.53;4.40;;;1.30;41.70;;;;;;5046194;28;20037;-72
2021/01/08 08:27:59;;;;;;;6.75;4.20;;;1.30;40.30;;;;;;5044136;28;20052;-71
2021/01/08 08:30:27;;;;;;;10.85;6.32;;;1.40;41.00;;;;;;5043688;28;20053;-73
2021/01/08 08:32:54;;;;;;;6.40;3.72;;;1.60;40.10;;;;;;5047809;28;20444;-71
2021/01/08 08:35:22;;;;;;;6.78;3.88;;;1.50;39.30;;;;;;5049615;28;20478;-69
2021/01/08 08:37:51;;;;;;;5.95;3.50;;;1.50;41.20;;;;;;5046752;28;20052;-70
2021/01/08 08:40:22;;;;;;;6.15;3.63;;;1.40;40.80;;;;;;5045913;28;20103;-70
2021/01/08 08:42:53;;;;;;;6.43;3.88;;;1.40;41.80;;;;;;5050188;28;20438;-69
2021/01/08 08:45:23;;;;;;;7.07;4.25;;;1.40;40.30;;;;;;5047513;28;20388;-70
2021/01/08 08:47:51;;;;;;;7.32;4.20;;;1.40;41.50;;;;;;5043383;28;20057;-70
2021/01/08 08:50:19;;;;;;;6.38;4.07;;;1.30;41.60;;;;;;5047344;28;20053;-70
2021/01/08 08:52:49;;;;;;;6.55;3.60;;;1.40;42.70;;;;;;5046072;28;20133;-69
2021/01/08 08:55:27;;;;;;;7.38;3.80;;;1.30;43.20;;;;;;5048123;28;20045;-70
2021/01/08 08:58:05;;;;;;;7.03;3.95;;;1.30;42.70;;;;;;5046919;28;20055;-71
2021/01/08 09:00:35;;;;;;;8.18;4.40;;;1.30;42.20;;;;;;5042289;28;20048;-70
2021/01/08 09:03:15;;;;;;;6.85;4.07;;;1.30;43.20;;;;;;5048872;28;20049;-71
2021/01/08 09:05:43;;;;;;;6.80;3.97;;;1.20;43.10;;;;;;5050205;28;20048;-70
2021/01/08 09:08:15;;;;;;;7.93;4.43;;;1.30;43.50;;;;;;5047590;28;20135;-72
2021/01/08 09:10:51;;;;;;;7.00;4.13;;;1.30;43.20;;;;;;5044700;28;20052;-72
2021/01/08 09:13:23;;;;;;;7.25;4.40;;;1.50;43.40;;;;;;5050790;28;20106;-70
2021/01/08 09:16:00;;;;;;;6.75;4.30;;;1.40;42.00;;;;;;5049033;28;20411;-69
2021/01/08 09:18:36;;;;;;;7.32;4.40;;;1.50;43.50;;;;;;5046542;28;20049;-70
2021/01/08 09:21:11;;;;;;;7.53;4.50;;;1.40;42.90;;;;;;5046834;28;20048;-68
2021/01/08 09:23:39;;;;;;;7.88;4.55;;;1.30;43.30;;;;;;5049732;28;20061;-69
2021/01/08 09:26:08;;;;;;;11.00;5.28;;;1.40;43.30;;;;;;5043467;28;20514;-70
2021/01/08 09:28:42;;;;;;;8.68;4.85;;;1.40;44.00;;;;;;5048503;28;20044;-70
2021/01/08 09:31:10;;;;;;;8.77;5.30;;;1.40;43.90;;;;;;5046447;28;20052;-70
2021/01/08 09:33:37;;;;;;;8.05;5.32;;;1.40;43.30;;;;;;5048064;28;20530;-70
2021/01/08 09:36:05;;;;;;;8.00;4.70;;;1.50;43.40;;;;;;5047752;28;20084;-70
2021/01/08 09:38:33;;;;;;;7.20;4.90;;;1.50;42.20;;;;;;5048401;28;20136;-70
2021/01/08 09:41:01;;;;;;;10.77;5.32;;;1.40;40.70;;;;;;5044774;28;20570;-69
2021/01/08 09:43:28;;;;;;;8.60;5.65;;;1.40;42.20;;;;;;5047113;28;20052;-70
2021/01/08 09:46:05;;;;;;;8.85;5.18;;;1.40;42.40;;;;;;5047794;28;20037;-70
2021/01/08 09:48:34;;;;;;;9.00;5.68;;;1.50;42.40;;;;;;5049613;28;20466;-70
2021/01/08 09:51:03;;;;;;;8.20;5.55;;;1.50;39.70;;;;;;5043678;28;20059;-69
2021/01/08 09:53:29;;;;;;;11.00;5.45;;;1.40;42.10;;;;;;5047452;28;20049;-69
2021/01/08 09:56:13;;;;;;;8.82;5.60;;;1.40;42.00;;;;;;5045975;28;20045;-71
2021/01/08 09:58:40;;;;;;;11.52;6.93;;;1.40;43.30;;;;;;5049122;28;20132;-71
2021/01/08 10:01:08;;;;;;;9.95;5.95;;;1.50;43.40;;;;;;5043534;28;20943;-71
2021/01/08 10:03:36;;;;;;;9.95;6.22;;;1.40;43.80;;;;;;5046890;28;20430;-71
2021/01/08 10:06:09;;;;;;;11.63;6.20;;;1.40;43.70;;;;;;5045262;28;20036;-73
2021/01/08 10:08:37;;;;;;;10.05;6.18;;;1.40;44.90;;;;;;5046329;28;20126;-70
2021/01/08 10:11:05;;;;;;;10.45;6.32;;;1.30;45.10;;;;;;5043717;28;20068;-70
2021/01/08 10:13:32;;;;;;;13.48;7.13;;;1.30;48.00;;;;;;5049094;28;20048;-72
2021/01/08 10:16:06;;;;;;;12.32;7.22;;;1.20;48.80;;;;;;5047032;28;20491;-72
2021/01/08 10:18:35;;;;;;;14.38;8.63;;;1.00;51.00;;;;;;5048290;28;20041;-69
2021/01/08 10:21:07;;;;;;;12.63;7.15;;;1.20;52.70;;;;;;5042940;28;20049;-72
2021/01/08 10:23:39;;;;;;;14.43;7.47;;;1.20;52.80;;;;;;5048963;28;20466;-70
2021/01/08 10:26:09;;;;;;;13.93;7.50;;;1.10;53.70;;;;;;5044528;28;20049;-72
2021/01/08 10:28:47;;;;;;;16.05;8.40;;;1.00;56.30;;;;;;5050393;28;20049;-70
2021/01/08 10:31:15;;;;;;;12.48;7.43;;;1.10;55.60;;;;;;5036511;28;20526;-71
2021/01/08 10:33:43;;;;;;;16.73;8.18;;;1.00;56.30;;;;;;5043891;28;20054;-71
2021/01/08 10:36:11;;;;;;;16.00;9.18;;;1.10;57.40;;;;;;5046828;28;20141;-72
2021/01/08 10:38:38;;;;;;;17.08;8.85;;;1.30;58.00;;;;;;5049563;28;20061;-69
2021/01/08 10:41:10;;;;;;;16.08;8.43;;;1.20;54.00;;;;;;5046795;28;20057;-70
2021/01/08 10:43:37;;;;;;;13.90;8.63;;;1.60;55.90;;;;;;5048535;28;20055;-71
2021/01/08 10:46:04;;;;;;;19.17;8.45;;;1.50;51.30;;;;;;5047230;28;20068;-71
2021/01/08 10:48:31;;;;;;;16.98;8.88;;;1.50;51.30;;;;;;5046809;28;20045;-71
2021/01/08 10:50:59;;;;;;;17.13;8.75;;;1.40;51.30;;;;;;5045179;28;20048;-71
2021/01/08 10:53:27;;;;;;;16.27;7.75;;;1.50;53.20;;;;;;5046767;28;20045;-70
2021/01/08 10:55:53;;;;;;;15.57;8.80;;;1.30;49.80;;;;;;5045475;28;20053;-72
2021/01/08 10:58:20;;;;;;;16.13;8.30;;;1.20;51.50;;;;;;5046815;28;20044;-70
2021/01/08 11:00:47;;;;;;;18.05;9.05;;;1.00;52.80;;;;;;5043911;28;20045;-72
2021/01/08 11:03:14;;;;;;;14.90;7.97;;;1.20;52.60;;;;;;5045414;28;20044;-70
2021/01/08 11:05:42;;;;;;;16.73;8.65;;;1.20;53.30;;;;;;5046757;28;20127;-72
2021/01/08 11:08:09;;;;;;;16.25;9.68;;;1.10;53.50;;;;;;5044963;28;20064;-71
2021/01/08 11:10:37;;;;;;;21.77;10.85;;;1.20;53.00;;;;;;5043201;28;20053;-72
2021/01/08 11:13:05;;;;;;;14.43;8.60;;;1.30;51.30;;;;;;5046514;28;20429;-70
2021/01/08 11:15:32;;;;;;;14.93;8.02;;;1.20;51.10;;;;;;5047171;28;20080;-71
2021/01/08 11:17:59;;;;;;;15.77;8.48;;;1.20;51.90;;;;;;5045380;28;20041;-71
2021/01/08 11:20:26;;;;;;;15.13;7.88;;;1.10;51.10;;;;;;5043399;28;20053;-73
2021/01/08 11:22:57;;;;;;;14.07;7.90;;;1.30;50.50;;;;;;5049827;28;20068;-70
2021/01/08 11:25:23;;;;;;;16.02;7.97;;;1.10;46.70;;;;;;5047624;28;20033;-71
2021/01/08 11:27:51;;;;;;;16.05;7.70;;;1.20;48.90;;;;;;5045304;28;20127;-72
2021/01/08 11:30:19;;;;;;;15.63;8.02;;;1.20;50.60;;;;;;5045367;28;20083;-72
2021/01/08 11:32:45;;;;;;;16.80;8.60;;;1.10;51.10;;;;;;5047518;28;20053;-70
2021/01/08 11:35:13;;;;;;;17.60;8.82;;;1.40;53.20;;;;;;5045953;28;20134;-71
2021/01/08 11:37:40;;;;;;;15.18;8.05;;;1.60;51.90;;;;;;5043160;28;20053;-71
2021/01/08 11:40:08;;;;;;;13.48;7.68;;;1.30;45.90;;;;;;5044939;28;20124;-73
2021/01/08 11:42:35;;;;;;;16.77;7.47;;;1.30;46.80;;;;;;5045517;28;20057;-71
2021/01/08 11:45:04;;;;;;;15.52;7.30;;;1.30;45.20;;;;;;5045372;28;20068;-70
2021/01/08 11:47:35;;;;;;;14.90;8.27;;;1.20;44.90;;;;;;5044714;28;20045;-71
2021/01/08 11:50:04;;;;;;;14.52;7.45;;;1.30;43.20;;;;;;5047712;28;20163;-73
2021/01/08 11:52:31;;;;;;;15.82;7.43;;;1.50;44.80;;;;;;5045146;28;20503;-70
2021/01/08 11:54:59;;;;;;;13.18;7.63;;;1.40;41.20;;;;;;5047098;28;20073;-71
2021/01/08 11:57:26;;;;;;;12.45;6.95;;;1.50;43.40;;;;;;5037934;28;20056;-72
2021/01/08 11:59:53;;;;;;;14.80;7.35;;;1.50;42.40;;;;;;5039651;28;20048;-71
2021/01/08 12:02:21;;;;;;;12.50;6.68;;;1.40;40.60;;;;;;5045856;28;20392;-71
2021/01/08 12:04:48;;;;;;;12.93;7.47;;;1.40;39.60;;;;;;5047741;28;20063;-70
2021/01/08 12:07:15;;;;;;;12.85;6.57;;;1.50;38.10;;;;;;5044788;28;20041;-72
2021/01/08 12:09:42;;;;;;;14.93;7.97;;;1.40;39.10;;;;;;5046094;28;20071;-70
2021/01/08 12:12:09;;;;;;;12.90;6.47;;;1.40;38.80;;;;;;5043652;28;20045;-70
2021/01/08 12:14:36;;;;;;;12.00;6.97;;;1.50;39.90;;;;;;5045759;28;20422;-71
2021/01/08 12:17:04;;;;;;;15.20;7.45;;;1.40;39.20;;;;;;5042578;28;20059;-71
2021/01/08 12:19:32;;;;;;;10.95;6.93;;;1.40;40.60;;;;;;5047592;28;20087;-70
2021/01/08 12:21:59;;;;;;;12.43;6.85;;;1.20;39.10;;;;;;5045812;28;20045;-71
2021/01/08 12:24:26;;;;;;;15.05;7.82;;;1.30;37.10;;;;;;5046427;28;20045;-71
2021/01/08 12:26:53;;;;;;;14.35;7.63;;;1.30;36.90;;;;;;5045841;28;20104;-70
2021/01/08 12:29:20;;;;;;;12.68;7.40;;;1.40;37.80;;;;;;5046320;28;20075;-71
2021/01/08 12:31:47;;;;;;;11.50;6.78;;;1.50;36.60;;;;;;5044382;28;20078;-70
2021/01/08 12:34:15;;;;;;;11.25;6.13;;;1.40;36.40;;;;;;5044313;28;20041;-70
2021/01/08 12:36:42;;;;;;;10.40;6.20;;;1.50;39.20;;;;;;5044804;28;20647;-72
2021/01/08 12:39:09;;;;;;;10.98;6.13;;;1.60;34.30;;;;;;5044335;28;20151;-70
2021/01/08 12:41:36;;;;;;;9.50;6.18;;;1.60;36.50;;;;;;5043491;28;20087;-72
2021/01/08 12:47:44;;;;;;;8.98;5.50;;;1.80;34.10;;;;;;5036953;28;20084;-68
2021/01/08 12:57:40;;;;;;;10.48;5.38;;;2.00;30.80;;;;;;5039195;28;20041;-69
2021/01/08 13:00:09;;;;;;;9.80;6.05;;;2.00;31.90;;;;;;5045886;28;20482;-70
2021/01/08 13:02:36;;;;;;;11.35;5.32;;;2.10;33.10;;;;;;5042838;28;20056;-69
2021/01/08 13:05:04;;;;;;;12.02;6.30;;;1.90;30.50;;;;;;5044080;28;20049;-70
2021/01/08 13:19:15;;;;;;;8.27;5.60;;;2.00;32.50;;;;;;5049296;28;20470;-70